Time;durP1;ratioP1;P1;durP2;ratioP2;P2;SDS_P1;SDS_P2;PMS_P1;PMS_P2;Temp;Humidity;BMP_temperature;BMP_pressure;BME280_temperature;BME280_humidity;BME280_pressure;Samples;Min_cycle;Max_cycle;Signal;HPM_P1;HPM_P2
2023/07/11 00:02:26;;;;;;;17.73;12.38;;;;;;;;;;10449834;28;20036;-87
2023/07/11 00:07:27;;;;;;;24.25;13.43;;;;;;;;;;10447523;28;20041;-87
2023/07/11 00:12:29;;;;;;;20.77;12.88;;;;;;;;;;10449760;28;20033;-87
2023/07/11 00:17:30;;;;;;;19.88;12.93;;;;;;;;;;10447627;28;20031;-86
2023/07/11 00:22:32;;;;;;;13.95;10.98;;;;;;;;;;10449061;28;20025;-87
2023/07/11 00:27:33;;;;;;;15.68;11.60;;;;;;;;;;10448605;28;20588;-86
2023/07/11 00:32:34;;;;;;;15.55;11.15;;;;;;;;;;10447104;28;20049;-88
2023/07/11 00:37:35;;;;;;;14.73;10.88;;;;;;;;;;10446806;28;20110;-86
2023/07/11 00:42:36;;;;;;;14.23;10.80;;;;;;;;;;10447598;28;20519;-90
2023/07/11 00:47:37;;;;;;;17.92;12.00;;;;;;;;;;10447738;28;20035;-88
2023/07/11 00:52:39;;;;;;;16.42;11.68;;;;;;;;;;10446365;28;20031;-88
2023/07/11 00:57:41;;;;;;;15.30;11.43;;;;;;;;;;10446603;28;20028;-87
2023/07/11 01:02:45;;;;;;;13.35;11.18;;;;;;;;;;10445054;28;20041;-88
2023/07/11 01:07:46;;;;;;;17.33;12.48;;;;;;;;;;10444320;28;20075;-88
2023/07/11 01:12:48;;;;;;;14.82;12.07;;;;;;;;;;10445346;28;20041;-87
2023/07/11 01:17:49;;;;;;;14.80;11.27;;;;;;;;;;10445286;28;20031;-86
2023/07/11 01:22:52;;;;;;;15.57;11.50;;;;;;;;;;10445232;28;20736;-89
2023/07/11 01:27:53;;;;;;;13.60;10.10;;;;;;;;;;10444514;28;20131;-88
2023/07/11 01:32:54;;;;;;;14.27;10.80;;;;;;;;;;10442879;28;20492;-88
2023/07/11 01:37:55;;;;;;;16.25;10.07;;;;;;;;;;10444849;28;20036;-88
2023/07/11 01:42:56;;;;;;;12.80;9.82;;;;;;;;;;10442993;28;20024;-89
2023/07/11 01:47:57;;;;;;;13.73;9.82;;;;;;;;;;10444558;28;20565;-88
2023/07/11 01:52:58;;;;;;;14.10;9.60;;;;;;;;;;10445123;28;20025;-87
2023/07/11 01:57:59;;;;;;;14.90;10.35;;;;;;;;;;10442960;28;20369;-87
2023/07/11 02:03:01;;;;;;;13.82;9.55;;;;;;;;;;10443337;28;20033;-88
2023/07/11 02:08:02;;;;;;;12.00;9.02;;;;;;;;;;10442654;28;20057;-88
2023/07/11 02:13:03;;;;;;;12.30;9.30;;;;;;;;;;10445253;28;20032;-89
2023/07/11 02:18:04;;;;;;;13.38;8.98;;;;;;;;;;10442721;28;20029;-89
2023/07/11 02:23:05;;;;;;;13.25;9.07;;;;;;;;;;10444446;28;20033;-88
2023/07/11 02:28:06;;;;;;;12.02;9.40;;;;;;;;;;10442526;28;20048;-88
2023/07/11 02:33:07;;;;;;;12.02;8.82;;;;;;;;;;10442717;28;20747;-87
2023/07/11 02:38:08;;;;;;;10.77;8.85;;;;;;;;;;10441976;28;20037;-86
2023/07/11 02:43:09;;;;;;;12.27;8.57;;;;;;;;;;10441649;28;20035;-89
2023/07/11 02:48:10;;;;;;;12.30;8.57;;;;;;;;;;10443984;28;20041;-89
2023/07/11 02:53:11;;;;;;;10.80;8.63;;;;;;;;;;10443747;28;20039;-87
2023/07/11 02:58:12;;;;;;;11.35;8.85;;;;;;;;;;10442871;28;20388;-86
2023/07/11 03:03:13;;;;;;;10.10;8.52;;;;;;;;;;10443552;28;20039;-89
2023/07/11 03:08:15;;;;;;;13.38;9.65;;;;;;;;;;10438664;28;20049;-85
2023/07/11 03:13:17;;;;;;;11.25;8.60;;;;;;;;;;10441519;28;20044;-84
2023/07/11 03:18:19;;;;;;;11.07;8.90;;;;;;;;;;10442989;28;20090;-88
2023/07/11 03:23:20;;;;;;;12.45;8.85;;;;;;;;;;10441487;28;20507;-88
2023/07/11 03:28:22;;;;;;;12.65;9.93;;;;;;;;;;10441300;28;20044;-83
2023/07/11 03:33:23;;;;;;;11.65;8.38;;;;;;;;;;10443106;28;20031;-87
2023/07/11 03:38:24;;;;;;;11.18;8.55;;;;;;;;;;10442643;28;20041;-86
2023/07/11 03:43:25;;;;;;;9.95;7.60;;;;;;;;;;10439220;28;20048;-87
2023/07/11 03:48:26;;;;;;;11.88;8.57;;;;;;;;;;10441140;28;20037;-86
2023/07/11 03:53:27;;;;;;;13.48;8.10;;;;;;;;;;10446754;28;20111;-86
2023/07/11 03:58:28;;;;;;;9.98;7.43;;;;;;;;;;10447385;28;20032;-86
2023/07/11 04:03:29;;;;;;;9.68;7.82;;;;;;;;;;10449572;28;20396;-86
2023/07/11 04:08:30;;;;;;;9.82;7.47;;;;;;;;;;10448898;28;20045;-88
2023/07/11 04:13:31;;;;;;;14.75;8.20;;;;;;;;;;10448795;28;20033;-85
2023/07/11 04:18:32;;;;;;;9.15;7.38;;;;;;;;;;10449056;28;20039;-92
2023/07/11 04:23:33;;;;;;;9.63;6.95;;;;;;;;;;10446789;28;20113;-89
2023/07/11 04:28:34;;;;;;;10.00;7.32;;;;;;;;;;10445954;28;20040;-89
2023/07/11 04:33:35;;;;;;;9.80;6.97;;;;;;;;;;10451994;28;20033;-90
2023/07/11 04:38:36;;;;;;;7.95;6.43;;;;;;;;;;10445196;28;20047;-90
2023/07/11 04:43:38;;;;;;;8.98;6.45;;;;;;;;;;10444963;28;20037;-88
2023/07/11 04:48:39;;;;;;;7.85;6.35;;;;;;;;;;10446318;28;20529;-88
2023/07/11 04:53:40;;;;;;;8.25;7.10;;;;;;;;;;10446358;28;20020;-89
2023/07/11 04:58:41;;;;;;;11.07;7.03;;;;;;;;;;10446414;28;20064;-86
2023/07/11 05:03:44;;;;;;;10.68;6.82;;;;;;;;;;10447089;28;20029;-88
2023/07/11 05:08:45;;;;;;;10.30;6.38;;;;;;;;;;10446255;28;20106;-87
2023/07/11 05:13:47;;;;;;;9.48;6.82;;;;;;;;;;10446488;28;20449;-87
2023/07/11 05:18:49;;;;;;;10.45;7.00;;;;;;;;;;10444880;28;20428;-87
2023/07/11 05:23:50;;;;;;;9.00;7.18;;;;;;;;;;10446266;28;20789;-86
2023/07/11 05:28:51;;;;;;;10.02;7.15;;;;;;;;;;10444951;28;20044;-84
2023/07/11 05:33:55;;;;;;;10.07;7.80;;;;;;;;;;10445548;28;20041;-87
2023/07/11 05:38:56;;;;;;;8.75;7.15;;;;;;;;;;10444849;28;20048;-88
2023/07/11 05:43:58;;;;;;;9.98;6.95;;;;;;;;;;10445671;28;20052;-86
2023/07/11 05:48:59;;;;;;;10.05;7.57;;;;;;;;;;10444068;28;20040;-87
2023/07/11 05:54:00;;;;;;;10.38;7.80;;;;;;;;;;10443773;28;20031;-88
2023/07/11 05:59:01;;;;;;;9.02;7.15;;;;;;;;;;10443763;28;20040;-86
2023/07/11 06:04:04;;;;;;;10.50;6.78;;;;;;;;;;10444803;28;20021;-85
2023/07/11 06:09:06;;;;;;;10.63;7.03;;;;;;;;;;10444343;28;20059;-86
2023/07/11 06:14:07;;;;;;;9.68;7.30;;;;;;;;;;10442462;28;20463;-87
2023/07/11 06:19:09;;;;;;;8.68;6.75;;;;;;;;;;10444938;28;20064;-89
2023/07/11 06:24:10;;;;;;;7.72;6.07;;;;;;;;;;10442650;28;20384;-87
2023/07/11 06:29:11;;;;;;;11.18;7.60;;;;;;;;;;10440573;28;20029;-88
2023/07/11 06:34:12;;;;;;;9.13;7.22;;;;;;;;;;10443665;28;20036;-86
2023/07/11 06:39:13;;;;;;;10.18;6.90;;;;;;;;;;10444041;28;20029;-88
2023/07/11 06:44:14;;;;;;;9.25;6.53;;;;;;;;;;10442115;28;20037;-86
2023/07/11 06:49:15;;;;;;;10.27;7.03;;;;;;;;;;10443481;28;20033;-85
2023/07/11 06:54:17;;;;;;;10.13;7.03;;;;;;;;;;10444741;28;20033;-87
2023/07/11 06:59:19;;;;;;;8.80;6.15;;;;;;;;;;10443158;28;20029;-88
2023/07/11 07:04:20;;;;;;;7.55;5.93;;;;;;;;;;10442244;28;20029;-86
2023/07/11 07:09:21;;;;;;;7.00;5.13;;;;;;;;;;10443260;28;20127;-88
2023/07/11 07:14:23;;;;;;;10.38;6.20;;;;;;;;;;10443907;28;20033;-85
2023/07/11 07:19:24;;;;;;;6.80;5.47;;;;;;;;;;10442456;28;20480;-88
2023/07/11 07:24:25;;;;;;;7.15;5.00;;;;;;;;;;10441119;28;20413;-87
2023/07/11 07:29:26;;;;;;;7.15;5.22;;;;;;;;;;10451399;28;20017;-87
2023/07/11 07:34:27;;;;;;;5.85;4.60;;;;;;;;;;10450760;28;20029;-88
2023/07/11 07:39:28;;;;;;;6.47;5.20;;;;;;;;;;10450794;28;20021;-86
2023/07/11 07:44:29;;;;;;;6.22;4.90;;;;;;;;;;10449062;28;20045;-87
2023/07/11 07:49:30;;;;;;;5.70;4.88;;;;;;;;;;10449010;28;20025;-87
2023/07/11 07:54:31;;;;;;;6.65;5.40;;;;;;;;;;10450224;28;20024;-88
2023/07/11 07:59:32;;;;;;;5.68;4.78;;;;;;;;;;10448235;28;20033;-86
2023/07/11 08:04:33;;;;;;;6.43;4.93;;;;;;;;;;10450431;28;20036;-88
2023/07/11 08:09:34;;;;;;;5.97;5.10;;;;;;;;;;10448002;28;20053;-87
2023/07/11 08:14:39;;;;;;;8.80;5.63;;;;;;;;;;10448734;28;20063;-87
2023/07/11 08:19:40;;;;;;;6.38;4.72;;;;;;;;;;10449089;28;20444;-87
2023/07/11 08:24:41;;;;;;;7.82;4.93;;;;;;;;;;10448149;28;20119;-87
2023/07/11 08:29:45;;;;;;;7.45;5.00;;;;;;;;;;10448413;28;20032;-86
2023/07/11 08:34:46;;;;;;;7.05;4.93;;;;;;;;;;10447074;28;20066;-88
2023/07/11 08:39:48;;;;;;;6.45;4.53;;;;;;;;;;10446907;28;20479;-88
2023/07/11 08:44:56;;;;;;;6.15;4.50;;;;;;;;;;10448162;28;20021;-87
2023/07/11 08:50:03;;;;;;;6.32;4.93;;;;;;;;;;10448600;28;20033;-87
2023/07/11 08:55:13;;;;;;;6.18;4.60;;;;;;;;;;10447732;28;20499;-86
2023/07/11 09:00:17;;;;;;;8.18;5.30;;;;;;;;;;10447166;28;20056;-88
2023/07/11 09:05:21;;;;;;;5.88;4.30;;;;;;;;;;10447070;28;20032;-88
2023/07/11 09:10:25;;;;;;;4.45;4.05;;;;;;;;;;10446521;28;20061;-85
2023/07/11 09:15:30;;;;;;;7.67;4.77;;;;;;;;;;10445489;28;20036;-87
2023/07/11 09:20:50;;;;;;;6.10;4.10;;;;;;;;;;10447170;28;20385;-83
2023/07/11 09:25:51;;;;;;;4.78;4.20;;;;;;;;;;10446585;28;20072;-85
2023/07/11 09:30:56;;;;;;;6.35;4.20;;;;;;;;;;10444805;28;20090;-85
2023/07/11 09:35:58;;;;;;;7.97;4.57;;;;;;;;;;10445679;28;20070;-84
2023/07/11 09:40:59;;;;;;;6.47;4.93;;;;;;;;;;10446142;28;20020;-83
2023/07/11 09:46:00;;;;;;;8.13;4.93;;;;;;;;;;10446046;28;20041;-84
2023/07/11 09:51:01;;;;;;;8.15;4.28;;;;;;;;;;10445853;28;20468;-83
2023/07/11 09:56:04;;;;;;;6.95;4.10;;;;;;;;;;10445667;28;20056;-85
2023/07/11 10:01:06;;;;;;;5.40;4.15;;;;;;;;;;10445310;28;20469;-84
2023/07/11 10:06:21;;;;;;;5.82;4.30;;;;;;;;;;10443348;28;20037;-84
2023/07/11 10:11:23;;;;;;;5.35;3.67;;;;;;;;;;10445010;28;20049;-84
2023/07/11 10:16:24;;;;;;;7.65;4.10;;;;;;;;;;10444904;28;20662;-81
2023/07/11 10:21:27;;;;;;;5.15;4.18;;;;;;;;;;10444232;28;20110;-86
2023/07/11 10:26:30;;;;;;;5.15;3.47;;;;;;;;;;10458544;28;20608;-86
2023/07/11 10:31:35;;;;;;;4.57;3.58;;;;;;;;;;10443125;28;20036;-86
2023/07/11 10:36:38;;;;;;;7.07;4.00;;;;;;;;;;10443631;28;20044;-86
2023/07/11 10:41:42;;;;;;;3.78;3.30;;;;;;;;;;10444915;28;20029;-87
2023/07/11 10:46:45;;;;;;;4.80;3.50;;;;;;;;;;10442148;28;20029;-87
2023/07/11 10:51:56;;;;;;;5.00;3.60;;;;;;;;;;10443732;28;20484;-87
2023/07/11 10:57:01;;;;;;;3.40;3.10;;;;;;;;;;10441888;28;20032;-87
2023/07/11 11:02:21;;;;;;;3.05;2.75;;;;;;;;;;10446837;28;20041;-88
2023/07/11 11:07:35;;;;;;;3.22;2.65;;;;;;;;;;10449628;28;20570;-88
2023/07/11 11:12:40;;;;;;;4.20;3.65;;;;;;;;;;10451368;28;20662;-88
2023/07/11 11:17:41;;;;;;;4.18;3.10;;;;;;;;;;10451348;28;20059;-86
2023/07/11 11:22:45;;;;;;;3.97;2.95;;;;;;;;;;10449801;28;20042;-88
2023/07/11 11:27:50;;;;;;;4.07;3.50;;;;;;;;;;10451383;28;20040;-88
2023/07/11 11:33:00;;;;;;;4.75;3.10;;;;;;;;;;10450679;28;20388;-88
2023/07/11 11:38:04;;;;;;;3.60;3.08;;;;;;;;;;10449453;28;20033;-87
2023/07/11 11:43:07;;;;;;;4.82;3.08;;;;;;;;;;10450785;28;20025;-89
2023/07/11 11:48:20;;;;;;;4.32;3.20;;;;;;;;;;10450602;28;20029;-87
2023/07/11 11:53:32;;;;;;;3.28;2.28;;;;;;;;;;10448937;28;20036;-89
2023/07/11 11:58:34;;;;;;;4.97;3.20;;;;;;;;;;10450135;28;20025;-87
2023/07/11 12:03:35;;;;;;;4.18;3.35;;;;;;;;;;10449978;28;20044;-86
2023/07/11 12:08:37;;;;;;;4.28;3.20;;;;;;;;;;10449369;28;20528;-86
2023/07/11 12:13:42;;;;;;;3.70;2.90;;;;;;;;;;10449425;28;20373;-86
2023/07/11 12:18:50;;;;;;;2.80;2.33;;;;;;;;;;10447701;28;20029;-86
2023/07/11 12:23:53;;;;;;;3.80;2.50;;;;;;;;;;10447744;28;20029;-86
2023/07/11 12:28:54;;;;;;;2.70;2.45;;;;;;;;;;10449224;28;20041;-87
2023/07/11 12:34:03;;;;;;;3.78;3.08;;;;;;;;;;10448662;28;20033;-89
2023/07/11 12:39:13;;;;;;;5.90;3.67;;;;;;;;;;10447258;28;20032;-85
2023/07/11 12:44:15;;;;;;;4.05;3.10;;;;;;;;;;10446916;28;20032;-87
2023/07/11 12:49:27;;;;;;;4.50;2.70;;;;;;;;;;10447634;28;20029;-86
2023/07/11 12:54:28;;;;;;;3.45;2.38;;;;;;;;;;10447729;28;20017;-88
2023/07/11 12:59:30;;;;;;;3.47;2.17;;;;;;;;;;10446339;28;20029;-89
2023/07/11 13:04:37;;;;;;;2.53;2.30;;;;;;;;;;10448348;28;20499;-90
2023/07/11 13:09:47;;;;;;;3.28;2.80;;;;;;;;;;10445755;28;20489;-88
2023/07/11 13:14:49;;;;;;;4.75;3.05;;;;;;;;;;10445635;28;20020;-87
2023/07/11 13:20:00;;;;;;;3.95;2.78;;;;;;;;;;10447057;28;20388;-88
2023/07/11 13:25:01;;;;;;;4.90;2.78;;;;;;;;;;10446582;28;20373;-88
2023/07/11 13:30:03;;;;;;;4.22;2.72;;;;;;;;;;10446647;28;20032;-87
2023/07/11 13:35:12;;;;;;;5.13;3.17;;;;;;;;;;10444363;28;20507;-87
2023/07/11 13:40:32;;;;;;;3.30;2.58;;;;;;;;;;10446900;28;20365;-89
2023/07/11 13:45:35;;;;;;;3.88;3.10;;;;;;;;;;10445695;28;20044;-88
2023/07/11 13:50:36;;;;;;;3.07;2.50;;;;;;;;;;10446855;28;20017;-88
2023/07/11 13:55:37;;;;;;;4.30;2.70;;;;;;;;;;10445888;28;20021;-91
2023/07/11 14:00:42;;;;;;;3.40;2.40;;;;;;;;;;10443796;28;20094;-88
2023/07/11 14:05:43;;;;;;;;;;;;;;;;;;10445783;28;20075;-88
2023/07/11 14:10:45;;;;;;;5.00;2.78;;;;;;;;;;10444219;28;19975;-87
2023/07/11 14:15:46;;;;;;;3.58;2.50;;;;;;;;;;10444752;28;20057;-88
2023/07/11 14:20:47;;;;;;;4.35;2.65;;;;;;;;;;10443278;28;20035;-86
2023/07/11 14:25:48;;;;;;;5.53;2.65;;;;;;;;;;10444539;28;20037;-88
2023/07/11 14:30:50;;;;;;;3.95;2.88;;;;;;;;;;10442749;28;20029;-90
2023/07/11 14:35:51;;;;;;;5.70;2.47;;;;;;;;;;10442929;28;20494;-88
2023/07/11 14:40:52;;;;;;;6.47;2.80;;;;;;;;;;10445069;28;20031;-87
2023/07/11 14:45:53;;;;;;;2.53;2.30;;;;;;;;;;10441572;28;20040;-91
2023/07/11 14:50:59;;;;;;;3.75;2.40;;;;;;;;;;10441557;28;20135;-88
2023/07/11 14:56:18;;;;;;;3.75;2.50;;;;;;;;;;10438632;28;20580;-89
2023/07/11 15:01:19;;;;;;;6.05;2.80;;;;;;;;;;10438297;28;20056;-87
2023/07/11 15:06:20;;;;;;;2.72;2.42;;;;;;;;;;10441858;28;20343;-88
2023/07/11 15:11:26;;;;;;;3.80;2.58;;;;;;;;;;10440034;28;20103;-87
2023/07/11 15:16:27;;;;;;;4.13;2.70;;;;;;;;;;10434464;28;20044;-88
2023/07/11 15:21:29;;;;;;;4.63;2.45;;;;;;;;;;10429422;28;20498;-85
2023/07/11 15:26:30;;;;;;;4.35;2.80;;;;;;;;;;10443292;28;20048;-88
2023/07/11 15:31:31;;;;;;;2.50;2.22;;;;;;;;;;10431152;28;20033;-86
2023/07/11 15:36:32;;;;;;;3.85;2.45;;;;;;;;;;10429665;28;20373;-88
2023/07/11 15:41:33;;;;;;;2.95;2.10;;;;;;;;;;10440716;28;20044;-88
2023/07/11 15:46:34;;;;;;;4.22;2.55;;;;;;;;;;10442111;28;20048;-87
2023/07/11 15:51:35;;;;;;;3.40;2.42;;;;;;;;;;10446042;28;20640;-86
2023/07/11 15:56:41;;;;;;;3.05;2.05;;;;;;;;;;10447016;28;20021;-88
2023/07/11 16:01:42;;;;;;;3.05;2.00;;;;;;;;;;10462557;28;20486;-90
2023/07/11 16:06:45;;;;;;;3.63;2.20;;;;;;;;;;10448726;28;20370;-89
2023/07/11 16:11:46;;;;;;;4.05;2.80;;;;;;;;;;10448875;28;20136;-90
2023/07/11 16:16:47;;;;;;;4.57;2.33;;;;;;;;;;10445909;28;20032;-88
2023/07/11 16:21:48;;;;;;;2.58;2.30;;;;;;;;;;10446711;28;20033;-87
2023/07/11 16:26:50;;;;;;;3.20;2.20;;;;;;;;;;10447462;28;20053;-86
2023/07/11 16:31:51;;;;;;;4.75;2.42;;;;;;;;;;10446584;28;20041;-90
2023/07/11 16:36:56;;;;;;;3.45;2.25;;;;;;;;;;10447832;28;20033;-88
2023/07/11 16:41:57;;;;;;;3.53;2.05;;;;;;;;;;10443139;28;20459;-89
2023/07/11 16:46:58;;;;;;;3.58;2.00;;;;;;;;;;10447250;28;20538;-89
2023/07/11 16:51:59;;;;;;;2.92;2.10;;;;;;;;;;10454885;28;20106;-86
2023/07/11 16:57:00;;;;;;;2.72;2.00;;;;;;;;;;10444871;28;20037;-88
2023/07/11 17:02:01;;;;;;;3.00;2.20;;;;;;;;;;10443965;28;20036;-87
2023/07/11 17:07:02;;;;;;;4.07;2.30;;;;;;;;;;10446661;28;20041;-88
2023/07/11 17:12:04;;;;;;;4.60;2.53;;;;;;;;;;10444031;28;20059;-88
2023/07/11 17:17:10;;;;;;;4.97;2.40;;;;;;;;;;10445679;28;20052;-87
2023/07/11 17:22:15;;;;;;;2.60;2.08;;;;;;;;;;10446040;28;20106;-88
2023/07/11 17:27:21;;;;;;;2.97;2.08;;;;;;;;;;10443922;28;20037;-88
2023/07/11 17:32:24;;;;;;;4.07;2.28;;;;;;;;;;10443890;28;20066;-88
2023/07/11 17:37:26;;;;;;;3.72;2.00;;;;;;;;;;10444005;28;20033;-87
2023/07/11 17:42:28;;;;;;;3.72;2.75;;;;;;;;;;10443407;28;20036;-89
2023/07/11 17:47:29;;;;;;;3.03;2.17;;;;;;;;;;10443909;28;20056;-87
2023/07/11 17:52:31;;;;;;;4.85;2.30;;;;;;;;;;10444097;28;20120;-89
2023/07/11 17:57:32;;;;;;;4.45;2.25;;;;;;;;;;10442750;28;20037;-88
2023/07/11 18:02:33;;;;;;;3.72;2.50;;;;;;;;;;10441305;28;20036;-88
2023/07/11 18:07:36;;;;;;;4.25;2.40;;;;;;;;;;10443425;28;20480;-88
2023/07/11 18:12:37;;;;;;;3.22;2.58;;;;;;;;;;10441360;28;20404;-87
2023/07/11 18:17:38;;;;;;;3.95;2.55;;;;;;;;;;10442556;28;20032;-89
2023/07/11 18:22:39;;;;;;;3.58;2.45;;;;;;;;;;10440787;28;20496;-86
2023/07/11 18:27:40;;;;;;;4.35;2.65;;;;;;;;;;10442960;28;20037;-87
2023/07/11 18:32:41;;;;;;;4.03;3.40;;;;;;;;;;10444914;28;20025;-86
2023/07/11 18:37:43;;;;;;;7.47;5.18;;;;;;;;;;10440662;28;20024;-93
2023/07/11 18:42:44;;;;;;;8.05;4.30;;;;;;;;;;10442217;28;20117;-88
2023/07/11 18:47:45;;;;;;;4.55;3.15;;;;;;;;;;10453069;28;20036;-88
2023/07/11 18:52:46;;;;;;;4.95;3.00;;;;;;;;;;10429824;28;20029;-83
2023/07/11 18:57:48;;;;;;;4.45;3.20;;;;;;;;;;10441802;28;20060;-84
2023/07/11 19:02:49;;;;;;;7.38;4.10;;;;;;;;;;10441052;28;20603;-83
2023/07/11 19:07:50;;;;;;;7.00;3.55;;;;;;;;;;10442390;28;20045;-84
2023/07/11 19:12:51;;;;;;;5.57;3.10;;;;;;;;;;10439097;28;20037;-84
2023/07/11 19:18:02;;;;;;;4.72;3.25;;;;;;;;;;10440352;28;20044;-84
2023/07/11 19:23:10;;;;;;;2.72;2.40;;;;;;;;;;10445647;28;20024;-86
2023/07/11 19:28:11;;;;;;;4.60;2.75;;;;;;;;;;10439486;28;20056;-84
2023/07/11 19:33:13;;;;;;;3.70;2.63;;;;;;;;;;10448441;28;20068;-83
2023/07/11 19:38:14;;;;;;;3.58;2.50;;;;;;;;;;10449694;28;20357;-83
2023/07/11 19:43:15;;;;;;;4.32;2.95;;;;;;;;;;10449809;28;20039;-84
2023/07/11 19:48:21;;;;;;;4.50;2.72;;;;;;;;;;10449705;28;20036;-84
2023/07/11 19:53:23;;;;;;;7.43;3.10;;;;;;;;;;10438755;28;20538;-82
2023/07/11 19:58:27;;;;;;;3.65;2.95;;;;;;;;;;10448586;28;20054;-84
2023/07/11 20:03:29;;;;;;;4.10;2.70;;;;;;;;;;10492227;22;20475;-83
2023/07/11 20:08:31;;;;;;;5.93;3.72;;;;;;;;;;10509952;28;20519;-83
2023/07/11 20:13:32;;;;;;;4.63;2.95;;;;;;;;;;10491946;28;20415;-83
2023/07/11 20:18:33;;;;;;;3.58;2.90;;;;;;;;;;10490058;28;20101;-83
2023/07/11 20:23:35;;;;;;;3.63;2.72;;;;;;;;;;10486623;28;20058;-84
2023/07/11 20:28:36;;;;;;;3.03;2.60;;;;;;;;;;10483879;28;20476;-83
2023/07/11 20:33:37;;;;;;;4.72;3.05;;;;;;;;;;10484117;28;20052;-84
2023/07/11 20:38:38;;;;;;;5.50;2.90;;;;;;;;;;10474660;28;20035;-83
2023/07/11 20:43:40;;;;;;;4.00;3.03;;;;;;;;;;10483629;28;20029;-84
2023/07/11 20:48:42;;;;;;;3.78;2.70;;;;;;;;;;10486627;28;20048;-83
2023/07/11 20:53:44;;;;;;;4.40;3.00;;;;;;;;;;10485965;28;20039;-84
2023/07/11 20:58:45;;;;;;;12.63;6.25;;;;;;;;;;10468113;28;20032;-84
2023/07/11 21:03:47;;;;;;;36.53;19.77;;;;;;;;;;10486553;28;20056;-83
2023/07/11 21:08:48;;;;;;;48.28;23.05;;;;;;;;;;10486541;28;20037;-83
2023/07/11 21:13:49;;;;;;;41.95;19.08;;;;;;;;;;10484557;28;20085;-83
2023/07/11 21:18:50;;;;;;;27.05;12.05;;;;;;;;;;10484660;28;20460;-83
2023/07/11 21:23:51;;;;;;;21.98;10.93;;;;;;;;;;10483889;28;20048;-84
2023/07/11 21:28:52;;;;;;;19.20;10.55;;;;;;;;;;10478015;28;20488;-83
2023/07/11 21:33:53;;;;;;;26.77;12.25;;;;;;;;;;10485584;28;20072;-84
2023/07/11 21:38:55;;;;;;;24.27;11.57;;;;;;;;;;10485387;28;20467;-83
2023/07/11 21:43:56;;;;;;;26.58;11.60;;;;;;;;;;10487531;28;20028;-84
2023/07/11 21:48:57;;;;;;;19.77;9.90;;;;;;;;;;10481833;28;20120;-84
2023/07/11 21:53:58;;;;;;;22.42;10.45;;;;;;;;;;10484928;28;20036;-83
2023/07/11 21:59:00;;;;;;;22.05;10.95;;;;;;;;;;10476028;28;20610;-84
2023/07/11 22:04:01;;;;;;;16.92;8.68;;;;;;;;;;10476961;28;20512;-83
2023/07/11 22:09:02;;;;;;;13.40;7.72;;;;;;;;;;10484025;28;20055;-84
2023/07/11 22:14:05;;;;;;;12.07;7.20;;;;;;;;;;10478126;28;20071;-83
2023/07/11 22:19:07;;;;;;;10.32;7.22;;;;;;;;;;10476525;28;20028;-84
2023/07/11 22:24:09;;;;;;;11.75;7.53;;;;;;;;;;10484582;28;20028;-83
2023/07/11 22:29:12;;;;;;;9.68;6.65;;;;;;;;;;10484152;28;20040;-84
2023/07/11 22:34:13;;;;;;;11.05;6.90;;;;;;;;;;10484914;28;20468;-84
2023/07/11 22:39:14;;;;;;;9.93;6.13;;;;;;;;;;10482086;28;20036;-83
2023/07/11 22:44:15;;;;;;;8.38;6.75;;;;;;;;;;10465196;28;20036;-83
2023/07/11 22:49:16;;;;;;;10.73;6.78;;;;;;;;;;10482926;28;20040;-83
2023/07/11 22:54:17;;;;;;;10.15;6.85;;;;;;;;;;10484377;28;20063;-83
2023/07/11 22:59:18;;;;;;;14.95;7.05;;;;;;;;;;10489585;28;20021;-83
2023/07/11 23:04:19;;;;;;;11.50;7.32;;;;;;;;;;10492634;28;20064;-84
2023/07/11 23:09:20;;;;;;;11.20;7.38;;;;;;;;;;10492406;28;20045;-83
2023/07/11 23:14:21;;;;;;;13.18;7.80;;;;;;;;;;10490105;28;20032;-83
2023/07/11 23:19:22;;;;;;;11.15;7.32;;;;;;;;;;10482526;28;20039;-83
2023/07/11 23:24:23;;;;;;;10.10;6.97;;;;;;;;;;10491300;28;20439;-83
2023/07/11 23:29:24;;;;;;;8.90;6.45;;;;;;;;;;10491098;28;20043;-83
2023/07/11 23:34:25;;;;;;;10.23;6.30;;;;;;;;;;10483796;28;20025;-83
2023/07/11 23:39:26;;;;;;;11.82;7.18;;;;;;;;;;10491316;28;20575;-83
2023/07/11 23:44:27;;;;;;;11.50;6.75;;;;;;;;;;10479576;28;20032;-83
2023/07/11 23:49:29;;;;;;;12.48;6.63;;;;;;;;;;10489090;28;20040;-83
2023/07/11 23:54:30;;;;;;;12.82;6.85;;;;;;;;;;10490950;28;20058;-83
2023/07/11 23:59:31;;;;;;;12.15;7.68;;;;;;;;;;10489697;28;20035;-84
